sensor_id;sensor_type;location;lat;lon;timestamp;temperature;humidity
25616;DHT22;13482;48.234;13.006;2023-08-08T00:00:48;16.50;69.50
25616;DHT22;13482;48.234;13.006;2023-08-08T00:03:15;16.50;69.50
25616;DHT22;13482;48.234;13.006;2023-08-08T00:05:43;16.50;69.60
25616;DHT22;13482;48.234;13.006;2023-08-08T00:08:10;16.50;69.60
25616;DHT22;13482;48.234;13.006;2023-08-08T00:10:38;16.50;69.60
25616;DHT22;13482;48.234;13.006;2023-08-08T00:13:05;16.40;69.60
25616;DHT22;13482;48.234;13.006;2023-08-08T00:15:32;16.40;69.60
25616;DHT22;13482;48.234;13.006;2023-08-08T00:18:00;16.40;69.60
25616;DHT22;13482;48.234;13.006;2023-08-08T00:20:27;16.40;69.60
25616;DHT22;13482;48.234;13.006;2023-08-08T00:22:55;16.40;69.50
25616;DHT22;13482;48.234;13.006;2023-08-08T00:25:22;16.40;69.60
25616;DHT22;13482;48.234;13.006;2023-08-08T00:27:50;16.40;69.60
25616;DHT22;13482;48.234;13.006;2023-08-08T00:30:18;16.30;69.60
25616;DHT22;13482;48.234;13.006;2023-08-08T00:32:45;16.30;69.60
25616;DHT22;13482;48.234;13.006;2023-08-08T00:35:13;16.30;69.60
25616;DHT22;13482;48.234;13.006;2023-08-08T00:37:41;16.30;69.60
25616;DHT22;13482;48.234;13.006;2023-08-08T00:40:08;16.30;69.70
25616;DHT22;13482;48.234;13.006;2023-08-08T00:42:36;16.30;69.70
25616;DHT22;13482;48.234;13.006;2023-08-08T00:45:04;16.20;69.70
25616;DHT22;13482;48.234;13.006;2023-08-08T00:47:35;16.20;69.80
25616;DHT22;13482;48.234;13.006;2023-08-08T00:50:04;16.20;69.80
25616;DHT22;13482;48.234;13.006;2023-08-08T00:52:32;16.20;69.80
25616;DHT22;13482;48.234;13.006;2023-08-08T00:55:00;16.20;69.90
25616;DHT22;13482;48.234;13.006;2023-08-08T00:57:29;16.20;69.90
25616;DHT22;13482;48.234;13.006;2023-08-08T00:59:56;16.20;70.00
25616;DHT22;13482;48.234;13.006;2023-08-08T01:02:23;16.20;70.00
25616;DHT22;13482;48.234;13.006;2023-08-08T01:04:51;16.20;70.10
25616;DHT22;13482;48.234;13.006;2023-08-08T01:07:59;16.20;70.20
25616;DHT22;13482;48.234;13.006;2023-08-08T01:10:38;16.20;70.50
25616;DHT22;13482;48.234;13.006;2023-08-08T01:13:20;16.10;70.20
25616;DHT22;13482;48.234;13.006;2023-08-08T01:15:50;16.20;70.50
25616;DHT22;13482;48.234;13.006;2023-08-08T01:18:19;16.10;70.30
25616;DHT22;13482;48.234;13.006;2023-08-08T01:20:47;16.10;70.30
25616;DHT22;13482;48.234;13.006;2023-08-08T01:23:28;16.10;70.30
25616;DHT22;13482;48.234;13.006;2023-08-08T01:26:00;16.10;70.50
25616;DHT22;13482;48.234;13.006;2023-08-08T01:28:28;16.10;70.40
25616;DHT22;13482;48.234;13.006;2023-08-08T01:30:56;16.00;70.40
25616;DHT22;13482;48.234;13.006;2023-08-08T01:33:24;16.00;70.40
25616;DHT22;13482;48.234;13.006;2023-08-08T01:36:00;16.00;70.40
25616;DHT22;13482;48.234;13.006;2023-08-08T01:38:41;16.00;70.50
25616;DHT22;13482;48.234;13.006;2023-08-08T01:41:10;16.00;70.40
25616;DHT22;13482;48.234;13.006;2023-08-08T01:43:39;16.00;70.30
25616;DHT22;13482;48.234;13.006;2023-08-08T01:46:07;15.90;70.30
25616;DHT22;13482;48.234;13.006;2023-08-08T01:48:35;15.90;70.30
25616;DHT22;13482;48.234;13.006;2023-08-08T01:51:03;15.90;70.30
25616;DHT22;13482;48.234;13.006;2023-08-08T01:53:30;15.90;70.40
25616;DHT22;13482;48.234;13.006;2023-08-08T01:55:58;15.90;70.40
25616;DHT22;13482;48.234;13.006;2023-08-08T01:58:25;15.80;70.30
25616;DHT22;13482;48.234;13.006;2023-08-08T02:00:53;15.80;70.30
25616;DHT22;13482;48.234;13.006;2023-08-08T02:03:20;15.80;70.40
25616;DHT22;13482;48.234;13.006;2023-08-08T02:05:48;15.80;70.50
25616;DHT22;13482;48.234;13.006;2023-08-08T02:08:16;15.70;70.50
25616;DHT22;13482;48.234;13.006;2023-08-08T02:10:44;15.70;70.50
25616;DHT22;13482;48.234;13.006;2023-08-08T02:13:11;15.70;70.60
25616;DHT22;13482;48.234;13.006;2023-08-08T02:15:38;15.70;70.60
25616;DHT22;13482;48.234;13.006;2023-08-08T02:18:06;15.70;70.70
25616;DHT22;13482;48.234;13.006;2023-08-08T02:20:35;15.70;70.70
25616;DHT22;13482;48.234;13.006;2023-08-08T02:23:03;15.60;70.80
25616;DHT22;13482;48.234;13.006;2023-08-08T02:25:31;15.60;70.90
25616;DHT22;13482;48.234;13.006;2023-08-08T02:27:58;15.60;70.90
25616;DHT22;13482;48.234;13.006;2023-08-08T02:30:25;15.60;71.00
25616;DHT22;13482;48.234;13.006;2023-08-08T02:32:53;15.50;71.00
25616;DHT22;13482;48.234;13.006;2023-08-08T02:35:20;15.50;71.10
25616;DHT22;13482;48.234;13.006;2023-08-08T02:37:47;15.50;71.10
25616;DHT22;13482;48.234;13.006;2023-08-08T02:40:15;15.40;71.10
25616;DHT22;13482;48.234;13.006;2023-08-08T02:42:42;15.40;71.30
25616;DHT22;13482;48.234;13.006;2023-08-08T02:45:10;15.40;71.40
25616;DHT22;13482;48.234;13.006;2023-08-08T02:47:37;15.40;71.40
25616;DHT22;13482;48.234;13.006;2023-08-08T02:50:05;15.40;71.50
25616;DHT22;13482;48.234;13.006;2023-08-08T02:52:33;15.40;71.60
25616;DHT22;13482;48.234;13.006;2023-08-08T02:55:00;15.40;71.60
25616;DHT22;13482;48.234;13.006;2023-08-08T02:57:29;15.40;71.60
25616;DHT22;13482;48.234;13.006;2023-08-08T02:59:57;15.40;71.60
25616;DHT22;13482;48.234;13.006;2023-08-08T03:02:24;15.40;71.60
25616;DHT22;13482;48.234;13.006;2023-08-08T03:04:51;15.30;71.60
25616;DHT22;13482;48.234;13.006;2023-08-08T03:07:18;15.30;71.50
25616;DHT22;13482;48.234;13.006;2023-08-08T03:09:46;15.30;71.50
25616;DHT22;13482;48.234;13.006;2023-08-08T03:12:13;15.40;71.50
25616;DHT22;13482;48.234;13.006;2023-08-08T03:14:41;15.40;71.60
25616;DHT22;13482;48.234;13.006;2023-08-08T03:17:09;15.40;71.60
25616;DHT22;13482;48.234;13.006;2023-08-08T03:19:36;15.40;71.60
25616;DHT22;13482;48.234;13.006;2023-08-08T03:22:04;15.40;71.50
25616;DHT22;13482;48.234;13.006;2023-08-08T03:24:32;15.40;71.40
25616;DHT22;13482;48.234;13.006;2023-08-08T03:26:59;15.40;71.40
25616;DHT22;13482;48.234;13.006;2023-08-08T03:29:27;15.40;71.40
25616;DHT22;13482;48.234;13.006;2023-08-08T03:31:54;15.40;71.50
25616;DHT22;13482;48.234;13.006;2023-08-08T03:34:21;15.40;71.60
25616;DHT22;13482;48.234;13.006;2023-08-08T03:36:49;15.40;71.70
25616;DHT22;13482;48.234;13.006;2023-08-08T03:39:17;15.40;71.80
25616;DHT22;13482;48.234;13.006;2023-08-08T03:41:44;15.30;71.80
25616;DHT22;13482;48.234;13.006;2023-08-08T03:44:12;15.30;71.90
25616;DHT22;13482;48.234;13.006;2023-08-08T03:46:39;15.30;71.90
25616;DHT22;13482;48.234;13.006;2023-08-08T03:49:06;15.30;71.90
25616;DHT22;13482;48.234;13.006;2023-08-08T03:51:35;15.30;71.90
25616;DHT22;13482;48.234;13.006;2023-08-08T03:54:02;15.20;71.90
25616;DHT22;13482;48.234;13.006;2023-08-08T03:56:30;15.20;71.90
25616;DHT22;13482;48.234;13.006;2023-08-08T03:58:58;15.10;71.90
25616;DHT22;13482;48.234;13.006;2023-08-08T04:01:25;15.10;72.10
25616;DHT22;13482;48.234;13.006;2023-08-08T04:03:53;15.10;72.10
25616;DHT22;13482;48.234;13.006;2023-08-08T04:06:20;15.10;72.10
25616;DHT22;13482;48.234;13.006;2023-08-08T04:08:47;15.00;72.20
25616;DHT22;13482;48.234;13.006;2023-08-08T04:11:15;15.00;72.20
25616;DHT22;13482;48.234;13.006;2023-08-08T04:13:43;15.00;72.20
25616;DHT22;13482;48.234;13.006;2023-08-08T04:16:10;14.90;72.20
25616;DHT22;13482;48.234;13.006;2023-08-08T04:18:38;14.90;72.20
25616;DHT22;13482;48.234;13.006;2023-08-08T04:21:05;14.90;72.20
25616;DHT22;13482;48.234;13.006;2023-08-08T04:23:32;14.80;72.30
25616;DHT22;13482;48.234;13.006;2023-08-08T04:26:00;14.80;72.30
25616;DHT22;13482;48.234;13.006;2023-08-08T04:28:27;14.80;72.30
25616;DHT22;13482;48.234;13.006;2023-08-08T04:30:55;14.80;72.30
25616;DHT22;13482;48.234;13.006;2023-08-08T04:33:22;14.80;72.30
25616;DHT22;13482;48.234;13.006;2023-08-08T04:35:49;14.80;72.20
25616;DHT22;13482;48.234;13.006;2023-08-08T04:38:17;14.70;72.20
25616;DHT22;13482;48.234;13.006;2023-08-08T04:40:45;14.70;72.30
25616;DHT22;13482;48.234;13.006;2023-08-08T04:43:12;14.70;72.40
25616;DHT22;13482;48.234;13.006;2023-08-08T04:45:40;14.70;72.40
25616;DHT22;13482;48.234;13.006;2023-08-08T04:48:07;14.70;72.40
25616;DHT22;13482;48.234;13.006;2023-08-08T04:50:35;14.70;72.50
25616;DHT22;13482;48.234;13.006;2023-08-08T04:53:02;14.70;72.50
25616;DHT22;13482;48.234;13.006;2023-08-08T04:55:30;14.70;72.60
25616;DHT22;13482;48.234;13.006;2023-08-08T04:57:57;14.80;72.60
25616;DHT22;13482;48.234;13.006;2023-08-08T05:00:26;14.80;72.70
25616;DHT22;13482;48.234;13.006;2023-08-08T05:02:54;14.80;72.80
25616;DHT22;13482;48.234;13.006;2023-08-08T05:05:22;14.80;72.90
25616;DHT22;13482;48.234;13.006;2023-08-08T05:07:49;14.80;73.00
25616;DHT22;13482;48.234;13.006;2023-08-08T05:10:17;14.90;73.10
25616;DHT22;13482;48.234;13.006;2023-08-08T05:12:44;14.90;73.10
25616;DHT22;13482;48.234;13.006;2023-08-08T05:15:11;14.90;73.10
25616;DHT22;13482;48.234;13.006;2023-08-08T05:17:39;15.00;73.20
25616;DHT22;13482;48.234;13.006;2023-08-08T05:20:07;15.00;73.20
25616;DHT22;13482;48.234;13.006;2023-08-08T05:22:36;15.00;73.20
25616;DHT22;13482;48.234;13.006;2023-08-08T05:25:04;15.10;73.20
25616;DHT22;13482;48.234;13.006;2023-08-08T05:27:32;15.10;73.30
25616;DHT22;13482;48.234;13.006;2023-08-08T05:29:59;15.10;73.30
25616;DHT22;13482;48.234;13.006;2023-08-08T05:32:27;15.20;73.30
25616;DHT22;13482;48.234;13.006;2023-08-08T05:34:54;15.20;73.40
25616;DHT22;13482;48.234;13.006;2023-08-08T05:37:24;15.30;73.50
25616;DHT22;13482;48.234;13.006;2023-08-08T05:39:52;15.30;73.80
25616;DHT22;13482;48.234;13.006;2023-08-08T05:42:20;15.40;73.80
25616;DHT22;13482;48.234;13.006;2023-08-08T05:44:47;15.50;73.90
25616;DHT22;13482;48.234;13.006;2023-08-08T05:47:15;15.60;73.90
25616;DHT22;13482;48.234;13.006;2023-08-08T05:49:42;15.70;73.90
25616;DHT22;13482;48.234;13.006;2023-08-08T05:52:09;15.80;73.70
25616;DHT22;13482;48.234;13.006;2023-08-08T05:54:38;15.90;73.60
25616;DHT22;13482;48.234;13.006;2023-08-08T05:57:05;16.00;73.40
25616;DHT22;13482;48.234;13.006;2023-08-08T05:59:33;16.10;73.50
25616;DHT22;13482;48.234;13.006;2023-08-08T06:02:00;16.20;73.40
25616;DHT22;13482;48.234;13.006;2023-08-08T06:04:28;16.30;73.30
25616;DHT22;13482;48.234;13.006;2023-08-08T06:06:55;16.40;73.20
25616;DHT22;13482;48.234;13.006;2023-08-08T06:09:23;16.50;73.20
25616;DHT22;13482;48.234;13.006;2023-08-08T06:11:51;16.60;73.30
25616;DHT22;13482;48.234;13.006;2023-08-08T06:14:19;16.70;73.40
25616;DHT22;13482;48.234;13.006;2023-08-08T06:16:46;16.80;73.50
25616;DHT22;13482;48.234;13.006;2023-08-08T06:19:14;16.90;73.50
25616;DHT22;13482;48.234;13.006;2023-08-08T06:21:43;17.00;73.40
25616;DHT22;13482;48.234;13.006;2023-08-08T06:24:10;17.10;73.30
25616;DHT22;13482;48.234;13.006;2023-08-08T06:26:37;17.20;73.20
25616;DHT22;13482;48.234;13.006;2023-08-08T06:29:05;17.30;73.10
25616;DHT22;13482;48.234;13.006;2023-08-08T06:31:32;17.40;73.10
25616;DHT22;13482;48.234;13.006;2023-08-08T06:34:00;17.50;73.20
25616;DHT22;13482;48.234;13.006;2023-08-08T06:36:27;17.60;73.30
25616;DHT22;13482;48.234;13.006;2023-08-08T06:38:55;17.70;73.20
25616;DHT22;13482;48.234;13.006;2023-08-08T06:41:22;17.80;73.10
25616;DHT22;13482;48.234;13.006;2023-08-08T06:43:51;17.90;73.00
25616;DHT22;13482;48.234;13.006;2023-08-08T06:46:18;18.00;73.00
25616;DHT22;13482;48.234;13.006;2023-08-08T06:48:47;18.10;73.10
25616;DHT22;13482;48.234;13.006;2023-08-08T06:51:15;18.20;73.10
25616;DHT22;13482;48.234;13.006;2023-08-08T06:53:42;18.30;73.20
25616;DHT22;13482;48.234;13.006;2023-08-08T06:56:09;18.50;73.20
25616;DHT22;13482;48.234;13.006;2023-08-08T06:58:37;18.60;73.30
25616;DHT22;13482;48.234;13.006;2023-08-08T07:01:04;18.80;73.20
25616;DHT22;13482;48.234;13.006;2023-08-08T07:03:31;19.00;72.80
25616;DHT22;13482;48.234;13.006;2023-08-08T07:05:59;19.10;72.50
25616;DHT22;13482;48.234;13.006;2023-08-08T07:08:27;19.30;72.30
25616;DHT22;13482;48.234;13.006;2023-08-08T07:10:57;19.50;71.70
25616;DHT22;13482;48.234;13.006;2023-08-08T07:13:25;19.60;71.70
25616;DHT22;13482;48.234;13.006;2023-08-08T07:15:52;19.80;71.50
25616;DHT22;13482;48.234;13.006;2023-08-08T07:18:20;20.00;71.50
25616;DHT22;13482;48.234;13.006;2023-08-08T07:20:47;20.10;70.80
25616;DHT22;13482;48.234;13.006;2023-08-08T07:23:16;20.30;70.40
25616;DHT22;13482;48.234;13.006;2023-08-08T07:25:45;20.40;69.70
25616;DHT22;13482;48.234;13.006;2023-08-08T07:28:16;20.50;69.50
25616;DHT22;13482;48.234;13.006;2023-08-08T07:30:43;20.60;69.40
25616;DHT22;13482;48.234;13.006;2023-08-08T07:33:11;20.80;69.30
25616;DHT22;13482;48.234;13.006;2023-08-08T07:35:40;20.90;69.20
25616;DHT22;13482;48.234;13.006;2023-08-08T07:38:08;21.10;68.90
25616;DHT22;13482;48.234;13.006;2023-08-08T07:40:36;21.20;69.00
25616;DHT22;13482;48.234;13.006;2023-08-08T07:43:03;21.30;68.60
25616;DHT22;13482;48.234;13.006;2023-08-08T07:45:31;21.50;68.20
25616;DHT22;13482;48.234;13.006;2023-08-08T07:48:01;21.60;67.90
25616;DHT22;13482;48.234;13.006;2023-08-08T07:50:29;21.80;67.70
25616;DHT22;13482;48.234;13.006;2023-08-08T07:52:57;21.90;67.70
25616;DHT22;13482;48.234;13.006;2023-08-08T07:55:24;22.00;67.30
25616;DHT22;13482;48.234;13.006;2023-08-08T07:57:52;22.10;66.90
25616;DHT22;13482;48.234;13.006;2023-08-08T08:00:19;22.20;66.30
25616;DHT22;13482;48.234;13.006;2023-08-08T08:02:49;22.30;66.30
25616;DHT22;13482;48.234;13.006;2023-08-08T08:05:16;22.40;65.80
25616;DHT22;13482;48.234;13.006;2023-08-08T08:07:45;22.50;65.50
25616;DHT22;13482;48.234;13.006;2023-08-08T08:10:13;22.50;65.40
25616;DHT22;13482;48.234;13.006;2023-08-08T08:12:42;22.60;65.10
25616;DHT22;13482;48.234;13.006;2023-08-08T08:15:10;22.70;65.20
25616;DHT22;13482;48.234;13.006;2023-08-08T08:17:38;22.80;65.50
25616;DHT22;13482;48.234;13.006;2023-08-08T08:20:06;22.80;64.60
25616;DHT22;13482;48.234;13.006;2023-08-08T08:22:38;22.90;64.60
25616;DHT22;13482;48.234;13.006;2023-08-08T08:25:06;23.00;64.50
25616;DHT22;13482;48.234;13.006;2023-08-08T08:27:36;23.10;64.40
25616;DHT22;13482;48.234;13.006;2023-08-08T08:30:08;23.20;64.30
25616;DHT22;13482;48.234;13.006;2023-08-08T08:32:39;23.30;63.70
25616;DHT22;13482;48.234;13.006;2023-08-08T08:35:08;23.30;64.00
25616;DHT22;13482;48.234;13.006;2023-08-08T08:37:40;23.40;63.80
25616;DHT22;13482;48.234;13.006;2023-08-08T08:40:08;23.40;63.90
25616;DHT22;13482;48.234;13.006;2023-08-08T08:42:38;23.50;64.00
25616;DHT22;13482;48.234;13.006;2023-08-08T08:45:08;23.60;63.20
25616;DHT22;13482;48.234;13.006;2023-08-08T08:47:37;23.60;62.90
25616;DHT22;13482;48.234;13.006;2023-08-08T08:50:05;23.70;63.20
25616;DHT22;13482;48.234;13.006;2023-08-08T08:52:34;23.70;63.30
25616;DHT22;13482;48.234;13.006;2023-08-08T08:55:03;23.80;63.20
25616;DHT22;13482;48.234;13.006;2023-08-08T08:57:32;23.90;63.10
25616;DHT22;13482;48.234;13.006;2023-08-08T09:00:00;24.00;62.80
25616;DHT22;13482;48.234;13.006;2023-08-08T09:02:28;24.10;62.50
25616;DHT22;13482;48.234;13.006;2023-08-08T09:04:56;24.20;62.60
25616;DHT22;13482;48.234;13.006;2023-08-08T09:07:26;24.30;62.60
25616;DHT22;13482;48.234;13.006;2023-08-08T09:09:55;24.40;62.30
25616;DHT22;13482;48.234;13.006;2023-08-08T09:12:22;24.50;62.10
25616;DHT22;13482;48.234;13.006;2023-08-08T09:14:55;24.60;62.00
25616;DHT22;13482;48.234;13.006;2023-08-08T09:17:27;24.70;61.40
25616;DHT22;13482;48.234;13.006;2023-08-08T09:20:13;24.80;60.80
25616;DHT22;13482;48.234;13.006;2023-08-08T09:22:41;24.80;61.10
25616;DHT22;13482;48.234;13.006;2023-08-08T09:25:12;24.90;60.30
25616;DHT22;13482;48.234;13.006;2023-08-08T09:27:43;24.90;60.30
25616;DHT22;13482;48.234;13.006;2023-08-08T09:30:24;24.90;60.50
25616;DHT22;13482;48.234;13.006;2023-08-08T09:32:52;25.00;59.90
25616;DHT22;13482;48.234;13.006;2023-08-08T09:35:23;25.00;59.50
25616;DHT22;13482;48.234;13.006;2023-08-08T09:37:53;25.00;59.00
25616;DHT22;13482;48.234;13.006;2023-08-08T09:40:22;25.10;59.50
25616;DHT22;13482;48.234;13.006;2023-08-08T09:42:53;25.10;59.50
25616;DHT22;13482;48.234;13.006;2023-08-08T09:45:20;25.20;59.70
25616;DHT22;13482;48.234;13.006;2023-08-08T09:47:53;25.30;59.40
25616;DHT22;13482;48.234;13.006;2023-08-08T09:50:20;25.40;58.80
25616;DHT22;13482;48.234;13.006;2023-08-08T09:52:48;25.40;58.50
25616;DHT22;13482;48.234;13.006;2023-08-08T09:55:16;25.50;58.60
25616;DHT22;13482;48.234;13.006;2023-08-08T09:57:46;25.50;58.10
25616;DHT22;13482;48.234;13.006;2023-08-08T10:00:14;25.50;58.40
25616;DHT22;13482;48.234;13.006;2023-08-08T10:02:47;25.50;58.50
25616;DHT22;13482;48.234;13.006;2023-08-08T10:05:15;25.50;58.10
25616;DHT22;13482;48.234;13.006;2023-08-08T10:07:43;25.50;58.00
25616;DHT22;13482;48.234;13.006;2023-08-08T10:10:10;25.50;57.70
25616;DHT22;13482;48.234;13.006;2023-08-08T10:12:39;25.50;57.90
25616;DHT22;13482;48.234;13.006;2023-08-08T10:15:08;25.50;58.10
25616;DHT22;13482;48.234;13.006;2023-08-08T10:17:37;25.60;58.10
25616;DHT22;13482;48.234;13.006;2023-08-08T10:20:08;25.60;57.90
25616;DHT22;13482;48.234;13.006;2023-08-08T10:22:44;25.70;57.90
25616;DHT22;13482;48.234;13.006;2023-08-08T10:25:23;25.80;57.60
25616;DHT22;13482;48.234;13.006;2023-08-08T10:31:00;26.00;57.00
25616;DHT22;13482;48.234;13.006;2023-08-08T10:33:42;26.20;57.10
25616;DHT22;13482;48.234;13.006;2023-08-08T10:36:11;26.30;56.70
25616;DHT22;13482;48.234;13.006;2023-08-08T10:38:45;26.30;56.60
25616;DHT22;13482;48.234;13.006;2023-08-08T10:41:22;26.40;55.80
25616;DHT22;13482;48.234;13.006;2023-08-08T10:43:56;26.30;54.70
25616;DHT22;13482;48.234;13.006;2023-08-08T10:48:58;26.20;55.50
25616;DHT22;13482;48.234;13.006;2023-08-08T10:51:53;26.20;55.80
25616;DHT22;13482;48.234;13.006;2023-08-08T10:54:25;26.20;54.60
25616;DHT22;13482;48.234;13.006;2023-08-08T10:56:58;26.20;55.50
25616;DHT22;13482;48.234;13.006;2023-08-08T10:59:35;26.30;55.50
25616;DHT22;13482;48.234;13.006;2023-08-08T11:02:04;26.30;55.80
25616;DHT22;13482;48.234;13.006;2023-08-08T11:04:32;26.30;55.90
25616;DHT22;13482;48.234;13.006;2023-08-08T11:07:00;26.30;55.30
25616;DHT22;13482;48.234;13.006;2023-08-08T11:09:28;26.40;54.90
25616;DHT22;13482;48.234;13.006;2023-08-08T11:11:57;26.40;54.60
25616;DHT22;13482;48.234;13.006;2023-08-08T11:14:25;26.30;54.50
25616;DHT22;13482;48.234;13.006;2023-08-08T11:16:54;26.30;54.70
25616;DHT22;13482;48.234;13.006;2023-08-08T11:19:21;26.40;54.60
25616;DHT22;13482;48.234;13.006;2023-08-08T11:21:50;26.40;54.80
25616;DHT22;13482;48.234;13.006;2023-08-08T11:24:18;26.40;54.80
25616;DHT22;13482;48.234;13.006;2023-08-08T11:26:45;26.50;54.30
25616;DHT22;13482;48.234;13.006;2023-08-08T11:29:15;26.50;54.10
25616;DHT22;13482;48.234;13.006;2023-08-08T11:31:42;26.40;54.30
25616;DHT22;13482;48.234;13.006;2023-08-08T11:34:09;26.40;54.50
25616;DHT22;13482;48.234;13.006;2023-08-08T11:36:39;26.50;54.50
25616;DHT22;13482;48.234;13.006;2023-08-08T11:39:07;26.50;54.00
25616;DHT22;13482;48.234;13.006;2023-08-08T11:41:37;26.50;54.30
25616;DHT22;13482;48.234;13.006;2023-08-08T11:44:07;26.60;53.80
25616;DHT22;13482;48.234;13.006;2023-08-08T11:46:45;26.60;53.70
25616;DHT22;13482;48.234;13.006;2023-08-08T11:49:18;26.60;52.50
25616;DHT22;13482;48.234;13.006;2023-08-08T11:51:45;26.60;53.40
25616;DHT22;13482;48.234;13.006;2023-08-08T11:54:13;26.60;53.40
25616;DHT22;13482;48.234;13.006;2023-08-08T11:56:41;26.60;53.60
25616;DHT22;13482;48.234;13.006;2023-08-08T11:59:09;26.60;53.70
25616;DHT22;13482;48.234;13.006;2023-08-08T12:01:37;26.60;53.20
25616;DHT22;13482;48.234;13.006;2023-08-08T12:04:07;26.50;53.40
25616;DHT22;13482;48.234;13.006;2023-08-08T12:06:41;26.50;53.40
25616;DHT22;13482;48.234;13.006;2023-08-08T12:09:12;26.50;53.10
25616;DHT22;13482;48.234;13.006;2023-08-08T12:11:42;26.40;53.80
25616;DHT22;13482;48.234;13.006;2023-08-08T12:14:12;26.40;53.80
25616;DHT22;13482;48.234;13.006;2023-08-08T12:16:42;26.40;53.90
25616;DHT22;13482;48.234;13.006;2023-08-08T12:19:11;26.40;54.00
25616;DHT22;13482;48.234;13.006;2023-08-08T12:21:39;26.40;54.00
25616;DHT22;13482;48.234;13.006;2023-08-08T12:24:07;26.50;53.80
25616;DHT22;13482;48.234;13.006;2023-08-08T12:26:34;26.50;53.90
25616;DHT22;13482;48.234;13.006;2023-08-08T12:29:01;26.50;53.60
25616;DHT22;13482;48.234;13.006;2023-08-08T12:31:29;26.50;53.20
25616;DHT22;13482;48.234;13.006;2023-08-08T12:33:57;26.50;53.40
25616;DHT22;13482;48.234;13.006;2023-08-08T12:36:24;26.50;53.60
25616;DHT22;13482;48.234;13.006;2023-08-08T12:38:51;26.50;53.70
25616;DHT22;13482;48.234;13.006;2023-08-08T12:41:19;26.60;53.60
25616;DHT22;13482;48.234;13.006;2023-08-08T12:43:46;26.60;53.80
25616;DHT22;13482;48.234;13.006;2023-08-08T12:46:14;26.70;53.60
25616;DHT22;13482;48.234;13.006;2023-08-08T12:48:41;26.70;53.30
25616;DHT22;13482;48.234;13.006;2023-08-08T12:51:11;26.80;53.40
25616;DHT22;13482;48.234;13.006;2023-08-08T12:53:38;26.80;53.40
25616;DHT22;13482;48.234;13.006;2023-08-08T12:56:05;26.80;53.70
25616;DHT22;13482;48.234;13.006;2023-08-08T12:58:33;26.80;53.60
25616;DHT22;13482;48.234;13.006;2023-08-08T13:01:00;26.90;53.10
25616;DHT22;13482;48.234;13.006;2023-08-08T13:03:28;26.90;52.80
25616;DHT22;13482;48.234;13.006;2023-08-08T13:05:57;27.00;53.10
25616;DHT22;13482;48.234;13.006;2023-08-08T13:08:25;27.00;53.30
25616;DHT22;13482;48.234;13.006;2023-08-08T13:10:52;27.00;53.20
25616;DHT22;13482;48.234;13.006;2023-08-08T13:13:19;27.10;52.70
25616;DHT22;13482;48.234;13.006;2023-08-08T13:15:50;27.10;52.30
25616;DHT22;13482;48.234;13.006;2023-08-08T13:18:17;27.10;52.30
25616;DHT22;13482;48.234;13.006;2023-08-08T13:20:45;27.10;52.30
25616;DHT22;13482;48.234;13.006;2023-08-08T13:23:12;27.10;52.50
25616;DHT22;13482;48.234;13.006;2023-08-08T13:25:39;27.10;52.40
25616;DHT22;13482;48.234;13.006;2023-08-08T13:28:08;27.10;52.10
25616;DHT22;13482;48.234;13.006;2023-08-08T13:30:36;27.10;52.00
25616;DHT22;13482;48.234;13.006;2023-08-08T13:33:04;27.10;51.90
25616;DHT22;13482;48.234;13.006;2023-08-08T13:35:31;27.10;52.00
25616;DHT22;13482;48.234;13.006;2023-08-08T13:37:59;27.00;52.10
25616;DHT22;13482;48.234;13.006;2023-08-08T13:40:26;27.00;51.90
25616;DHT22;13482;48.234;13.006;2023-08-08T13:42:54;27.10;52.00
25616;DHT22;13482;48.234;13.006;2023-08-08T13:45:22;27.10;52.10
25616;DHT22;13482;48.234;13.006;2023-08-08T13:47:49;27.10;52.10
25616;DHT22;13482;48.234;13.006;2023-08-08T13:50:17;27.10;51.60
25616;DHT22;13482;48.234;13.006;2023-08-08T13:52:44;27.00;51.20
25616;DHT22;13482;48.234;13.006;2023-08-08T13:55:12;27.00;51.40
25616;DHT22;13482;48.234;13.006;2023-08-08T13:57:39;27.00;51.60
25616;DHT22;13482;48.234;13.006;2023-08-08T14:00:07;27.00;51.60
25616;DHT22;13482;48.234;13.006;2023-08-08T14:02:40;26.90;51.70
25616;DHT22;13482;48.234;13.006;2023-08-08T14:05:08;26.90;50.90
25616;DHT22;13482;48.234;13.006;2023-08-08T14:07:35;26.90;50.70
25616;DHT22;13482;48.234;13.006;2023-08-08T14:10:04;26.90;50.60
25616;DHT22;13482;48.234;13.006;2023-08-08T14:12:32;26.80;50.80
25616;DHT22;13482;48.234;13.006;2023-08-08T14:14:59;26.80;51.10
25616;DHT22;13482;48.234;13.006;2023-08-08T14:17:27;26.80;50.80
25616;DHT22;13482;48.234;13.006;2023-08-08T14:19:54;26.80;50.80
25616;DHT22;13482;48.234;13.006;2023-08-08T14:22:22;26.90;50.70
25616;DHT22;13482;48.234;13.006;2023-08-08T14:24:49;26.80;50.60
25616;DHT22;13482;48.234;13.006;2023-08-08T14:27:16;26.80;50.90
25616;DHT22;13482;48.234;13.006;2023-08-08T14:29:44;26.90;51.20
25616;DHT22;13482;48.234;13.006;2023-08-08T14:32:11;26.90;50.90
25616;DHT22;13482;48.234;13.006;2023-08-08T14:34:39;26.90;50.60
25616;DHT22;13482;48.234;13.006;2023-08-08T14:37:06;27.00;50.60
25616;DHT22;13482;48.234;13.006;2023-08-08T14:39:34;27.00;49.90
25616;DHT22;13482;48.234;13.006;2023-08-08T14:42:01;27.10;50.20
25616;DHT22;13482;48.234;13.006;2023-08-08T14:44:31;27.10;50.60
25616;DHT22;13482;48.234;13.006;2023-08-08T14:46:58;27.20;50.60
25616;DHT22;13482;48.234;13.006;2023-08-08T14:49:26;27.30;50.10
25616;DHT22;13482;48.234;13.006;2023-08-08T14:51:54;27.40;50.00
25616;DHT22;13482;48.234;13.006;2023-08-08T14:54:21;27.50;50.00
25616;DHT22;13482;48.234;13.006;2023-08-08T14:56:49;27.60;50.00
25616;DHT22;13482;48.234;13.006;2023-08-08T14:59:17;27.70;49.40
25616;DHT22;13482;48.234;13.006;2023-08-08T15:01:46;27.70;49.20
25616;DHT22;13482;48.234;13.006;2023-08-08T15:04:13;27.80;49.00
25616;DHT22;13482;48.234;13.006;2023-08-08T15:06:41;27.80;49.40
25616;DHT22;13482;48.234;13.006;2023-08-08T15:09:08;27.90;49.80
25616;DHT22;13482;48.234;13.006;2023-08-08T15:11:35;28.00;49.80
25616;DHT22;13482;48.234;13.006;2023-08-08T15:14:03;28.10;49.70
25616;DHT22;13482;48.234;13.006;2023-08-08T15:16:30;28.30;49.70
25616;DHT22;13482;48.234;13.006;2023-08-08T15:18:58;28.40;49.60
25616;DHT22;13482;48.234;13.006;2023-08-08T15:21:26;28.50;49.30
25616;DHT22;13482;48.234;13.006;2023-08-08T15:23:53;28.60;49.10
25616;DHT22;13482;48.234;13.006;2023-08-08T15:26:20;28.70;48.90
25616;DHT22;13482;48.234;13.006;2023-08-08T15:28:49;28.70;48.70